Station: Hohenfels, ICAO: ETIH, Synop: Synop: 10775,
Koordinaten: 4913'00''N 01150'00''E, Hoehe: 442m, Entfernung: 71.74km
2017/12/15 03:56
ETIH 150356Z AUTO 22007G19KT 9999 -RA OVC012 04/03 A2934 RMK AO2 RAB49 SLP953 P0000 T00360027 $


Station: HOHENFELS (USAF), ICAO: EDIH, Synop: Synop: 10775,
Koordinaten: 49 13 N 011 49 E, Hoehe: 442m, Entfernung: 72.92km


Station: GAERMERSDORF, ICAO: EDZH, Synop: ,
Koordinaten: 49 25 N 011 54 E, Hoehe: 419m, Entfernung: 75.72km


Station: Kuemmersruck, ICAO: ETGK, Synop: Synop: 10771,
Koordinaten: 4926'00''N 01154'00''E, Hoehe: 419m, Entfernung: 76.69km


Station: PLZEN LINE, ICAO: LKLN, Synop: ,
Koordinaten: 49 41 N 013 16 E, Hoehe: 362m, Entfernung: 77.07km
2017/12/15 04:13
LKLN 150413Z AUTO 22008KT 9999 OVC014 04/01 Q0993


Station: Grafenwoehr, ICAO: ETIC, Synop: Synop: 10687,
Koordinaten: 4942'00''N 01157'00''E, Hoehe: 415m, Entfernung: 93.41km
2017/12/15 04:26
ETIC 150426Z AUTO 19003KT 3200 R32/1500 -SN BR BKN003 OVC008 01/00 A2929 RMK AO2 VIS 3200V5000 SLP937 FZRANO $


mehr Wetter
WetterInfo - adds.pl 2.6.003 DL3EL © 2004-2017 [154953]